Time;durP1;ratioP1;P1;durP2;ratioP2;P2;SDS_P1;SDS_P2;PMS_P1;PMS_P2;Temp;Humidity;BMP_temperature;BMP_pressure;BME280_temperature;BME280_humidity;BME280_pressure;Samples;Min_cycle;Max_cycle;Signal;HPM_P1;HPM_P2
2021/06/10 00:01:13;;;;;;;19.40;17.50;;;;;;;;;;5101903;28;21208;-82
2021/06/10 00:03:40;;;;;;;18.33;16.52;;;;;;;;;;5097726;28;20429;-82
2021/06/10 00:06:06;;;;;;;16.40;14.80;;;;;;;;;;5098930;28;20765;-82
2021/06/10 00:08:34;;;;;;;17.75;14.40;;;;;;;;;;5099067;28;20419;-81
2021/06/10 00:11:02;;;;;;;14.93;13.43;;;;;;;;;;5097574;28;20570;-81
2021/06/10 00:13:29;;;;;;;14.18;12.82;;;;;;;;;;5088749;28;20396;-82
2021/06/10 00:15:55;;;;;;;13.55;12.25;;;;;;;;;;5088960;28;20402;-81
2021/06/10 00:18:22;;;;;;;13.95;12.52;;;;;;;;;;5096042;28;20395;-82
2021/06/10 00:20:48;;;;;;;13.00;11.80;;;;;;;;;;5093335;28;20402;-81
2021/06/10 00:23:15;;;;;;;14.02;12.55;;;;;;;;;;5092941;28;20872;-81
2021/06/10 00:25:41;;;;;;;13.60;12.30;;;;;;;;;;5091434;28;20399;-81
2021/06/10 00:28:09;;;;;;;13.35;12.07;;;;;;;;;;5092980;28;20444;-81
2021/06/10 00:30:36;;;;;;;13.02;11.82;;;;;;;;;;5083450;28;20392;-82
2021/06/10 00:33:04;;;;;;;13.30;12.10;;;;;;;;;;5086881;28;20397;-82
2021/06/10 00:35:31;;;;;;;14.32;12.85;;;;;;;;;;5086783;28;20404;-82
2021/06/10 00:37:59;;;;;;;13.43;12.02;;;;;;;;;;5087117;28;20454;-81
2021/06/10 00:40:26;;;;;;;13.20;11.98;;;;;;;;;;5087009;28;20392;-81
2021/06/10 00:42:53;;;;;;;13.35;12.15;;;;;;;;;;5087281;28;20407;-81
2021/06/10 00:45:22;;;;;;;12.55;11.38;;;;;;;;;;5089175;28;20753;-82
2021/06/10 00:47:49;;;;;;;13.43;12.13;;;;;;;;;;5093401;28;20501;-81
2021/06/10 00:50:18;;;;;;;13.38;12.18;;;;;;;;;;5093317;28;20397;-81
2021/06/10 00:52:46;;;;;;;13.20;11.90;;;;;;;;;;5106085;28;20372;-81
2021/06/10 00:55:13;;;;;;;12.98;11.77;;;;;;;;;;5114181;28;20482;-80
2021/06/10 00:57:40;;;;;;;13.15;11.85;;;;;;;;;;5095284;28;20408;-81
2021/06/10 01:00:09;;;;;;;12.52;11.43;;;;;;;;;;5088996;28;20764;-82
2021/06/10 01:02:38;;;;;;;13.35;12.00;;;;;;;;;;5084199;28;20393;-81
2021/06/10 01:05:05;;;;;;;12.05;10.95;;;;;;;;;;5086813;28;20396;-81
2021/06/10 01:07:41;;;;;;;13.25;11.85;;;;;;;;;;5086608;28;20424;-81
2021/06/10 01:10:13;;;;;;;13.32;12.07;;;;;;;;;;5084548;28;20414;-81
2021/06/10 01:12:48;;;;;;;13.18;11.98;;;;;;;;;;5086436;28;20449;-80
2021/06/10 01:15:17;;;;;;;13.73;12.43;;;;;;;;;;5087509;28;20393;-80
2021/06/10 01:17:47;;;;;;;13.18;11.98;;;;;;;;;;5089629;28;20397;-82
2021/06/10 01:20:15;;;;;;;13.20;11.90;;;;;;;;;;5087085;28;20488;-81
2021/06/10 01:22:44;;;;;;;13.87;11.90;;;;;;;;;;5080946;28;20481;-82
2021/06/10 01:25:42;;;;;;;13.10;11.93;;;;;;;;;;5087022;28;20411;-82
2021/06/10 01:28:14;;;;;;;13.15;11.82;;;;;;;;;;5082789;28;20521;-81
2021/06/10 01:30:44;;;;;;;13.30;12.00;;;;;;;;;;5081999;28;20404;-81
2021/06/10 01:33:13;;;;;;;12.70;11.55;;;;;;;;;;5085746;28;20458;-82
2021/06/10 01:35:43;;;;;;;12.27;11.18;;;;;;;;;;5094966;28;20397;-82
2021/06/10 01:38:11;;;;;;;12.82;11.52;;;;;;;;;;5093558;28;20466;-82
2021/06/10 01:40:38;;;;;;;13.05;11.80;;;;;;;;;;5096483;28;20407;-82
2021/06/10 01:43:07;;;;;;;13.23;12.02;;;;;;;;;;5094258;28;20470;-82
2021/06/10 01:45:36;;;;;;;13.45;12.15;;;;;;;;;;5090247;28;20411;-82
2021/06/10 01:48:03;;;;;;;12.52;11.30;;;;;;;;;;5089766;28;20408;-82
2021/06/10 01:50:30;;;;;;;12.88;11.68;;;;;;;;;;5092686;28;20402;-82
2021/06/10 01:52:57;;;;;;;12.88;11.57;;;;;;;;;;5090583;28;20882;-82
2021/06/10 01:55:28;;;;;;;12.02;10.82;;;;;;;;;;5093361;28;20401;-81
2021/06/10 01:57:57;;;;;;;12.53;11.43;;;;;;;;;;5091515;28;20414;-82
2021/06/10 02:00:24;;;;;;;12.73;11.52;;;;;;;;;;5094832;28;20875;-82
2021/06/10 02:02:53;;;;;;;13.43;12.13;;;;;;;;;;5097604;28;20467;-81
2021/06/10 02:05:21;;;;;;;12.27;11.15;;;;;;;;;;5096941;28;20400;-80
2021/06/10 02:07:48;;;;;;;12.05;10.95;;;;;;;;;;5098361;28;20410;-82
2021/06/10 02:10:19;;;;;;;11.60;10.50;;;;;;;;;;5095834;28;20744;-82
2021/06/10 02:12:46;;;;;;;13.80;11.00;;;;;;;;;;5098300;28;20410;-82
2021/06/10 02:15:15;;;;;;;11.95;10.75;;;;;;;;;;5093654;28;20458;-82
2021/06/10 02:17:42;;;;;;;11.70;10.50;;;;;;;;;;5104639;28;20878;-82
2021/06/10 02:20:14;;;;;;;11.95;10.90;;;;;;;;;;5100318;28;20405;-82
2021/06/10 02:22:40;;;;;;;12.05;10.85;;;;;;;;;;5094704;28;20397;-82
2021/06/10 02:25:10;;;;;;;11.52;10.50;;;;;;;;;;5097152;28;20398;-80
2021/06/10 02:27:39;;;;;;;12.35;11.25;;;;;;;;;;5092310;28;20732;-81
2021/06/10 02:30:08;;;;;;;12.95;11.68;;;;;;;;;;5088647;28;20430;-80
2021/06/10 02:32:35;;;;;;;13.15;11.95;;;;;;;;;;5094440;28;20394;-81
2021/06/10 02:35:02;;;;;;;13.45;12.20;;;;;;;;;;5099455;28;20408;-81
2021/06/10 02:37:31;;;;;;;12.63;11.43;;;;;;;;;;5095813;28;20433;-82
2021/06/10 02:39:59;;;;;;;13.23;12.02;;;;;;;;;;5093526;28;20404;-81
2021/06/10 02:42:26;;;;;;;14.15;12.85;;;;;;;;;;5091660;28;20428;-81
2021/06/10 02:44:53;;;;;;;13.93;12.48;;;;;;;;;;5093428;28;20396;-83
2021/06/10 02:47:21;;;;;;;13.85;12.63;;;;;;;;;;5094291;28;20399;-80
2021/06/10 02:49:50;;;;;;;13.63;12.27;;;;;;;;;;5092835;28;20562;-82
2021/06/10 02:52:19;;;;;;;14.63;13.10;;;;;;;;;;5093617;28;20757;-82
2021/06/10 02:54:48;;;;;;;13.95;12.65;;;;;;;;;;5089966;28;20408;-83
2021/06/10 02:57:16;;;;;;;14.45;13.05;;;;;;;;;;5093286;28;20398;-81
2021/06/10 02:59:44;;;;;;;15.68;14.18;;;;;;;;;;5092149;28;21274;-82
2021/06/10 03:02:11;;;;;;;15.15;13.75;;;;;;;;;;5090859;28;20408;-80
2021/06/10 03:04:40;;;;;;;15.90;14.40;;;;;;;;;;5090370;28;20453;-81
2021/06/10 03:07:06;;;;;;;15.57;14.07;;;;;;;;;;5086550;28;20392;-82
2021/06/10 03:09:34;;;;;;;16.20;14.70;;;;;;;;;;5093319;28;20782;-82
2021/06/10 03:12:03;;;;;;;15.63;14.23;;;;;;;;;;5090622;28;20477;-82
2021/06/10 03:14:29;;;;;;;15.68;14.10;;;;;;;;;;5092852;28;20805;-82
2021/06/10 03:16:57;;;;;;;14.97;13.47;;;;;;;;;;5090712;28;20490;-82
2021/06/10 03:19:24;;;;;;;15.75;14.27;;;;;;;;;;5092123;28;20404;-82
2021/06/10 03:21:52;;;;;;;15.90;14.30;;;;;;;;;;5092943;28;20800;-82
2021/06/10 03:24:19;;;;;;;15.13;13.73;;;;;;;;;;5092756;28;20967;-82
2021/06/10 03:26:47;;;;;;;15.90;14.40;;;;;;;;;;5094102;28;20398;-82
2021/06/10 03:29:15;;;;;;;15.15;13.75;;;;;;;;;;5091984;28;20432;-82
2021/06/10 03:31:43;;;;;;;15.00;13.45;;;;;;;;;;5094612;28;20724;-81
2021/06/10 03:34:10;;;;;;;15.32;13.73;;;;;;;;;;5091788;28;20594;-82
2021/06/10 03:36:37;;;;;;;14.43;13.13;;;;;;;;;;5094779;28;20930;-82
2021/06/10 03:39:04;;;;;;;14.20;12.88;;;;;;;;;;5091513;28;20395;-83
2021/06/10 03:41:32;;;;;;;14.25;12.85;;;;;;;;;;5091221;28;20396;-82
2021/06/10 03:44:00;;;;;;;15.40;13.75;;;;;;;;;;5094068;28;20406;-82
2021/06/10 03:46:28;;;;;;;14.88;13.35;;;;;;;;;;5092191;28;20699;-82
2021/06/10 03:48:55;;;;;;;14.55;12.45;;;;;;;;;;5093680;28;20846;-81
2021/06/10 03:51:21;;;;;;;13.50;12.20;;;;;;;;;;5092512;28;20486;-82
2021/06/10 03:53:49;;;;;;;13.37;12.00;;;;;;;;;;5092614;28;20400;-82
2021/06/10 03:56:16;;;;;;;13.23;11.90;;;;;;;;;;5093319;28;20889;-82
2021/06/10 03:58:43;;;;;;;11.98;10.77;;;;;;;;;;5091984;28;20468;-82
2021/06/10 04:01:09;;;;;;;11.40;10.15;;;;;;;;;;5094196;28;20897;-82
2021/06/10 04:03:37;;;;;;;11.75;10.55;;;;;;;;;;5086042;28;20813;-81
2021/06/10 04:06:04;;;;;;;11.35;10.35;;;;;;;;;;5090162;28;20417;-82
2021/06/10 04:08:30;;;;;;;11.15;10.05;;;;;;;;;;5081270;28;20420;-82
2021/06/10 04:10:57;;;;;;;10.93;9.93;;;;;;;;;;5081885;28;20396;-81
2021/06/10 04:13:23;;;;;;;11.40;10.30;;;;;;;;;;5081068;28;20730;-82
2021/06/10 04:15:50;;;;;;;14.98;13.48;;;;;;;;;;5081814;28;20428;-82
2021/06/10 04:18:18;;;;;;;17.77;15.05;;;;;;;;;;5085527;28;20766;-83
2021/06/10 04:20:47;;;;;;;16.63;14.95;;;;;;;;;;5082181;28;20400;-82
2021/06/10 04:23:13;;;;;;;17.00;15.10;;;;;;;;;;5081385;28;20396;-82
2021/06/10 04:25:40;;;;;;;16.23;14.63;;;;;;;;;;5082030;28;20403;-82
2021/06/10 04:28:06;;;;;;;15.73;14.10;;;;;;;;;;5087049;28;20418;-82
2021/06/10 04:30:33;;;;;;;15.13;13.73;;;;;;;;;;5095195;28;20456;-82
2021/06/10 04:32:59;;;;;;;14.18;12.68;;;;;;;;;;5094742;28;20897;-82
2021/06/10 04:35:26;;;;;;;14.93;13.35;;;;;;;;;;5094738;28;20396;-82
2021/06/10 04:37:54;;;;;;;13.98;12.20;;;;;;;;;;5091342;28;20398;-82
2021/06/10 04:40:20;;;;;;;15.27;11.43;;;;;;;;;;5094946;28;20397;-81
2021/06/10 04:42:47;;;;;;;12.75;11.55;;;;;;;;;;5092043;28;20401;-82
2021/06/10 04:45:14;;;;;;;11.68;10.63;;;;;;;;;;5094526;28;20906;-82
2021/06/10 04:47:40;;;;;;;11.70;9.57;;;;;;;;;;5094417;28;20446;-82
2021/06/10 04:50:10;;;;;;;9.68;8.32;;;;;;;;;;5092685;28;20444;-81
2021/06/10 04:52:36;;;;;;;10.90;7.67;;;;;;;;;;5090607;28;20398;-82
2021/06/10 04:55:05;;;;;;;7.45;5.68;;;;;;;;;;5101601;28;20828;-81
2021/06/10 04:57:33;;;;;;;6.90;5.40;;;;;;;;;;5097300;28;20392;-82
2021/06/10 05:00:00;;;;;;;5.80;5.27;;;;;;;;;;5104348;28;20384;-82
2021/06/10 05:02:27;;;;;;;5.45;4.78;;;;;;;;;;5110883;28;20703;-82
2021/06/10 05:04:53;;;;;;;6.53;5.43;;;;;;;;;;5097118;28;20418;-82
2021/06/10 05:07:19;;;;;;;6.32;5.10;;;;;;;;;;5084752;28;20393;-82
2021/06/10 05:09:46;;;;;;;7.70;4.40;;;;;;;;;;5084748;28;20501;-82
2021/06/10 05:12:14;;;;;;;5.70;4.50;;;;;;;;;;5084347;28;20415;-82
2021/06/10 05:14:40;;;;;;;6.68;4.60;;;;;;;;;;5082195;28;20785;-82
2021/06/10 05:17:06;;;;;;;4.40;4.00;;;;;;;;;;5095475;28;20724;-83
2021/06/10 05:19:33;;;;;;;5.20;4.30;;;;;;;;;;5092573;28;20944;-81
2021/06/10 05:21:59;;;;;;;4.63;4.22;;;;;;;;;;5090982;28;20398;-81
2021/06/10 05:24:27;;;;;;;5.28;3.97;;;;;;;;;;5083009;28;20395;-82
2021/06/10 05:26:54;;;;;;;5.40;3.75;;;;;;;;;;5084410;28;20491;-82
2021/06/10 05:29:22;;;;;;;4.27;3.70;;;;;;;;;;5081478;28;20424;-81
2021/06/10 05:31:48;;;;;;;8.20;3.92;;;;;;;;;;5093020;28;20395;-82
2021/06/10 05:34:15;;;;;;;5.87;3.80;;;;;;;;;;5089780;28;20485;-82
2021/06/10 05:36:41;;;;;;;5.18;4.20;;;;;;;;;;5081639;28;20406;-81
2021/06/10 05:39:08;;;;;;;4.93;4.40;;;;;;;;;;5078392;28;20529;-81
2021/06/10 05:41:34;;;;;;;7.15;4.30;;;;;;;;;;5081497;28;20392;-81
2021/06/10 05:44:01;;;;;;;5.97;4.43;;;;;;;;;;5083283;28;20392;-81
2021/06/10 05:46:29;;;;;;;4.88;4.47;;;;;;;;;;5083519;28;20403;-81
2021/06/10 05:48:55;;;;;;;5.85;4.97;;;;;;;;;;5083431;28;20434;-81
2021/06/10 05:51:22;;;;;;;6.90;5.18;;;;;;;;;;5089029;28;20760;-81
2021/06/10 05:53:48;;;;;;;6.82;5.10;;;;;;;;;;5090467;28;20407;-81
2021/06/10 05:56:14;;;;;;;6.22;4.88;;;;;;;;;;5091720;28;20486;-81
2021/06/10 05:58:41;;;;;;;6.50;4.60;;;;;;;;;;5093307;28;20402;-81
2021/06/10 06:01:07;;;;;;;5.70;4.80;;;;;;;;;;5096715;28;20390;-82
2021/06/10 06:03:35;;;;;;;5.20;4.70;;;;;;;;;;5083378;28;20460;-81
2021/06/10 06:06:02;;;;;;;5.65;4.88;;;;;;;;;;5083927;28;20411;-82
2021/06/10 06:08:30;;;;;;;7.10;4.80;;;;;;;;;;5083702;28;20423;-82
2021/06/10 06:10:56;;;;;;;6.20;4.55;;;;;;;;;;5083994;28;20396;-83
2021/06/10 06:13:31;;;;;;;6.40;4.93;;;;;;;;;;5083384;28;20404;-83
2021/06/10 06:16:06;;;;;;;8.70;5.35;;;;;;;;;;5088888;28;20427;-82
2021/06/10 06:18:35;;;;;;;5.97;4.80;;;;;;;;;;5083006;28;20411;-83
2021/06/10 06:21:01;;;;;;;5.90;5.30;;;;;;;;;;5083148;28;20404;-82
2021/06/10 06:23:29;;;;;;;5.93;5.33;;;;;;;;;;5082986;28;20438;-82
2021/06/10 06:25:55;;;;;;;7.00;5.50;;;;;;;;;;5083362;28;20411;-82
2021/06/10 06:28:22;;;;;;;6.45;5.63;;;;;;;;;;5083231;28;20900;-82
2021/06/10 06:30:48;;;;;;;6.75;5.47;;;;;;;;;;5083177;28;20412;-82
2021/06/10 06:33:15;;;;;;;7.43;5.60;;;;;;;;;;5082238;28;20388;-82
2021/06/10 06:35:44;;;;;;;6.60;5.65;;;;;;;;;;5083092;28;20483;-82
2021/06/10 06:38:11;;;;;;;7.93;5.40;;;;;;;;;;5089290;28;20444;-81
2021/06/10 06:40:37;;;;;;;6.03;5.32;;;;;;;;;;5093345;28;20921;-82
2021/06/10 06:43:05;;;;;;;6.20;5.60;;;;;;;;;;5089672;28;20492;-86
2021/06/10 06:45:33;;;;;;;7.53;5.50;;;;;;;;;;5093540;28;20402;-85
2021/06/10 06:48:00;;;;;;;7.10;5.90;;;;;;;;;;5093182;28;20407;-86
2021/06/10 06:50:26;;;;;;;6.22;5.63;;;;;;;;;;5093610;28;20915;-85
2021/06/10 06:52:54;;;;;;;6.18;5.68;;;;;;;;;;5093527;28;20390;-85
2021/06/10 06:55:21;;;;;;;6.15;5.65;;;;;;;;;;5091100;28;20392;-86
2021/06/10 06:57:47;;;;;;;5.57;5.07;;;;;;;;;;5092531;28;20412;-83
2021/06/10 07:00:14;;;;;;;6.70;5.15;;;;;;;;;;5092608;28;20398;-83
2021/06/10 07:02:41;;;;;;;6.57;5.00;;;;;;;;;;5092617;28;20854;-82
2021/06/10 07:05:09;;;;;;;5.60;5.00;;;;;;;;;;5092616;28;20866;-83
2021/06/10 07:07:36;;;;;;;5.17;4.67;;;;;;;;;;5080862;28;20384;-82
2021/06/10 07:10:04;;;;;;;5.53;5.03;;;;;;;;;;5082423;28;20424;-83
2021/06/10 07:12:30;;;;;;;5.50;4.90;;;;;;;;;;5082612;28;20400;-83
2021/06/10 07:14:57;;;;;;;5.28;4.70;;;;;;;;;;5086803;28;20879;-83
2021/06/10 07:17:24;;;;;;;5.22;4.78;;;;;;;;;;5091829;28;20396;-83
2021/06/10 07:19:54;;;;;;;4.80;4.40;;;;;;;;;;5090140;28;20432;-84
2021/06/10 07:22:20;;;;;;;4.97;4.47;;;;;;;;;;5092360;28;20953;-82
2021/06/10 07:24:47;;;;;;;5.10;4.60;;;;;;;;;;5093074;28;20392;-93
2021/06/10 07:27:15;;;;;;;5.30;4.80;;;;;;;;;;5093784;28;20876;-82
2021/06/10 07:29:42;;;;;;;5.50;4.60;;;;;;;;;;5093338;28;20411;-80
2021/06/10 07:32:09;;;;;;;5.50;5.00;;;;;;;;;;5087035;28;20404;-81
2021/06/10 07:34:37;;;;;;;5.18;4.78;;;;;;;;;;5088776;28;20653;-82
2021/06/10 07:37:06;;;;;;;5.60;5.00;;;;;;;;;;5093661;28;20398;-82
2021/06/10 07:39:32;;;;;;;5.53;5.03;;;;;;;;;;5089989;28;20394;-82
2021/06/10 07:41:59;;;;;;;5.07;4.57;;;;;;;;;;5093325;28;20503;-83
2021/06/10 07:44:27;;;;;;;5.60;5.10;;;;;;;;;;5091229;28;20458;-82
2021/06/10 07:46:54;;;;;;;5.97;5.38;;;;;;;;;;5092928;28;20403;-83
2021/06/10 07:49:21;;;;;;;5.30;4.80;;;;;;;;;;5090759;28;20468;-82
2021/06/10 07:51:47;;;;;;;5.50;5.00;;;;;;;;;;5093075;28;20393;-81
2021/06/10 07:54:13;;;;;;;5.40;4.90;;;;;;;;;;5092805;28;20391;-82
2021/06/10 07:56:40;;;;;;;7.68;5.28;;;;;;;;;;5093079;28;20395;-82
2021/06/10 07:59:07;;;;;;;7.82;5.50;;;;;;;;;;5092961;28;20913;-83
2021/06/10 08:01:34;;;;;;;7.03;5.90;;;;;;;;;;5092057;28;20391;-82
2021/06/10 08:04:01;;;;;;;7.07;5.97;;;;;;;;;;5093192;28;20396;-82
2021/06/10 08:06:27;;;;;;;6.77;6.07;;;;;;;;;;5096261;28;20866;-83
2021/06/10 08:08:53;;;;;;;8.65;6.35;;;;;;;;;;5097603;28;20408;-82
2021/06/10 08:11:20;;;;;;;6.30;5.70;;;;;;;;;;5096307;28;20399;-82
2021/06/10 08:13:46;;;;;;;6.18;5.63;;;;;;;;;;5096870;28;20480;-82
2021/06/10 08:16:13;;;;;;;5.88;5.32;;;;;;;;;;5096923;28;20405;-83
2021/06/10 08:18:41;;;;;;;6.30;5.68;;;;;;;;;;5096860;28;20451;-83
2021/06/10 08:21:07;;;;;;;6.55;5.78;;;;;;;;;;5083926;28;20396;-82
2021/06/10 08:23:34;;;;;;;6.30;5.78;;;;;;;;;;5086000;28;20447;-82
2021/06/10 08:26:02;;;;;;;6.60;5.53;;;;;;;;;;5085517;28;20453;-82
2021/06/10 08:28:30;;;;;;;6.50;5.90;;;;;;;;;;5085352;28;20419;-83
2021/06/10 08:30:56;;;;;;;6.60;6.00;;;;;;;;;;5085701;28;20404;-83
2021/06/10 08:33:23;;;;;;;6.88;6.20;;;;;;;;;;5095244;28;20392;-83
2021/06/10 08:35:52;;;;;;;6.93;5.85;;;;;;;;;;5096777;28;20752;-82
2021/06/10 08:38:19;;;;;;;6.40;5.80;;;;;;;;;;5092766;28;20396;-82
2021/06/10 08:40:46;;;;;;;6.47;5.88;;;;;;;;;;5097086;28;20394;-83
2021/06/10 08:43:12;;;;;;;6.53;5.93;;;;;;;;;;5089903;28;20486;-83
2021/06/10 08:45:43;;;;;;;6.40;5.80;;;;;;;;;;5087380;28;20394;-82
2021/06/10 08:48:09;;;;;;;8.25;6.30;;;;;;;;;;5083875;28;20744;-83
2021/06/10 08:50:36;;;;;;;7.72;6.93;;;;;;;;;;5085427;28;20804;-81
2021/06/10 08:53:07;;;;;;;7.20;6.50;;;;;;;;;;5090398;28;20463;-82
2021/06/10 08:55:33;;;;;;;7.13;6.43;;;;;;;;;;5089237;28;20400;-82
2021/06/10 08:58:00;;;;;;;6.90;6.30;;;;;;;;;;5091553;28;20460;-81
2021/06/10 09:00:29;;;;;;;7.05;6.35;;;;;;;;;;5090772;28;20446;-80
2021/06/10 09:02:57;;;;;;;7.50;6.70;;;;;;;;;;5092703;28;20825;-80
2021/06/10 09:05:25;;;;;;;7.22;6.07;;;;;;;;;;5089297;28;20392;-81
2021/06/10 09:07:54;;;;;;;7.37;6.60;;;;;;;;;;5092904;28;20396;-81
2021/06/10 09:10:27;;;;;;;7.05;6.35;;;;;;;;;;5093166;28;20924;-82
2021/06/10 09:12:56;;;;;;;8.10;6.60;;;;;;;;;;5090604;28;20404;-82
2021/06/10 09:15:26;;;;;;;7.57;6.80;;;;;;;;;;5093093;28;20400;-81
2021/06/10 09:17:54;;;;;;;7.40;6.70;;;;;;;;;;5091052;28;20443;-82
2021/06/10 09:20:36;;;;;;;7.30;6.70;;;;;;;;;;5090480;28;20904;-81
2021/06/10 09:23:24;;;;;;;8.43;6.97;;;;;;;;;;5091634;28;20741;-82
2021/06/10 09:26:01;;;;;;;7.27;6.57;;;;;;;;;;5082623;28;20433;-81
2021/06/10 09:28:31;;;;;;;7.93;7.23;;;;;;;;;;5081986;28;20748;-81
2021/06/10 09:30:59;;;;;;;7.43;6.80;;;;;;;;;;5089338;28;20673;-81
2021/06/10 09:33:26;;;;;;;7.03;6.40;;;;;;;;;;5091466;28;20400;-79
2021/06/10 09:35:54;;;;;;;7.10;6.40;;;;;;;;;;5092046;28;20427;-81
2021/06/10 09:38:21;;;;;;;6.78;6.18;;;;;;;;;;5094405;28;20404;-81
2021/06/10 09:40:48;;;;;;;6.00;5.40;;;;;;;;;;5093020;28;20403;-81
2021/06/10 09:43:16;;;;;;;6.18;5.57;;;;;;;;;;5090536;28;20430;-82
2021/06/10 09:45:46;;;;;;;6.10;5.50;;;;;;;;;;5094601;28;20398;-82
2021/06/10 09:48:12;;;;;;;7.60;5.95;;;;;;;;;;5088410;28;20512;-82
2021/06/10 09:50:42;;;;;;;9.00;8.15;;;;;;;;;;5088749;28;20780;-82
2021/06/10 09:53:13;;;;;;;10.15;8.27;;;;;;;;;;5087401;28;20883;-82
2021/06/10 09:55:45;;;;;;;10.40;8.00;;;;;;;;;;5087578;28;20405;-80
2021/06/10 09:58:24;;;;;;;8.20;7.10;;;;;;;;;;5088064;28;20406;-82
2021/06/10 10:00:54;;;;;;;9.10;7.80;;;;;;;;;;5094275;28;20376;-81
2021/06/10 10:03:41;;;;;;;8.68;7.70;;;;;;;;;;5115621;28;20738;-80
2021/06/10 10:06:16;;;;;;;10.43;8.38;;;;;;;;;;5100101;28;20436;-82
2021/06/10 10:08:42;;;;;;;8.68;7.70;;;;;;;;;;5087191;28;20491;-81
2021/06/10 10:11:11;;;;;;;9.05;6.88;;;;;;;;;;5087481;28;20749;-80
2021/06/10 10:13:40;;;;;;;8.07;5.78;;;;;;;;;;5089548;28;20895;-81
2021/06/10 10:16:07;;;;;;;6.85;5.80;;;;;;;;;;5084310;28;20890;-81
2021/06/10 10:18:34;;;;;;;8.10;6.85;;;;;;;;;;5086866;28;20425;-81
2021/06/10 10:21:01;;;;;;;6.75;5.97;;;;;;;;;;5092264;28;20472;-81
2021/06/10 10:23:27;;;;;;;6.43;5.38;;;;;;;;;;5087947;28;20407;-80
2021/06/10 10:25:58;;;;;;;6.28;5.68;;;;;;;;;;5091083;28;20746;-81
2021/06/10 10:28:27;;;;;;;6.00;5.18;;;;;;;;;;5088681;28;20447;-80
2021/06/10 10:30:56;;;;;;;5.70;5.20;;;;;;;;;;5089425;28;20415;-82
2021/06/10 10:33:24;;;;;;;6.28;5.68;;;;;;;;;;5084770;28;20767;-81
2021/06/10 10:35:52;;;;;;;5.93;4.97;;;;;;;;;;5086178;28;20756;-81
2021/06/10 10:38:22;;;;;;;5.63;5.20;;;;;;;;;;5088983;28;20793;-81
2021/06/10 10:40:54;;;;;;;5.22;4.80;;;;;;;;;;5086024;28;20467;-81
2021/06/10 10:43:21;;;;;;;5.30;4.80;;;;;;;;;;5086811;28;20393;-80
2021/06/10 10:45:51;;;;;;;5.60;5.00;;;;;;;;;;5085263;28;20879;-81
2021/06/10 10:48:33;;;;;;;5.53;4.97;;;;;;;;;;5088922;28;20404;-81
2021/06/10 10:50:59;;;;;;;5.90;5.20;;;;;;;;;;5087382;28;20799;-81
2021/06/10 10:53:27;;;;;;;6.35;5.10;;;;;;;;;;5085952;28;20407;-81
2021/06/10 10:56:05;;;;;;;5.30;4.80;;;;;;;;;;5089108;28;20404;-80
2021/06/10 10:58:32;;;;;;;5.68;5.15;;;;;;;;;;5087750;28;20404;-80
2021/06/10 11:00:59;;;;;;;4.60;4.20;;;;;;;;;;5088396;28;20392;-81
2021/06/10 11:03:28;;;;;;;4.35;4.00;;;;;;;;;;5084000;28;20455;-81
2021/06/10 11:05:58;;;;;;;5.88;4.60;;;;;;;;;;5089752;28;20499;-80
2021/06/10 11:09:15;;;;;;;5.25;4.82;;;;;;;;;;5085834;28;20397;-81
2021/06/10 11:11:55;;;;;;;5.60;5.00;;;;;;;;;;5004899;28;20405;-81
2021/06/10 11:14:43;;;;;;;5.60;5.00;;;;;;;;;;5071451;28;20471;-81
2021/06/10 11:17:25;;;;;;;5.10;4.70;;;;;;;;;;5083846;28;20406;-82
2021/06/10 11:19:54;;;;;;;5.50;5.10;;;;;;;;;;5084964;28;20960;-82
2021/06/10 11:22:33;;;;;;;5.17;4.77;;;;;;;;;;5085844;28;20420;-81
2021/06/10 11:25:00;;;;;;;5.60;4.97;;;;;;;;;;5084572;28;20431;-82
2021/06/10 11:27:41;;;;;;;4.63;4.30;;;;;;;;;;5083396;28;20799;-80
2021/06/10 11:30:25;;;;;;;5.20;4.80;;;;;;;;;;5084398;28;20797;-81
2021/06/10 11:33:08;;;;;;;5.28;4.78;;;;;;;;;;5090700;28;20412;-82
2021/06/10 11:35:38;;;;;;;4.60;4.30;;;;;;;;;;5081227;28;20408;-80
2021/06/10 11:38:11;;;;;;;4.38;4.00;;;;;;;;;;5084221;28;20399;-82
2021/06/10 11:40:39;;;;;;;4.77;4.37;;;;;;;;;;5080069;28;20475;-81
2021/06/10 11:43:06;;;;;;;4.80;4.40;;;;;;;;;;5083576;28;20404;-80
2021/06/10 11:45:33;;;;;;;4.97;4.65;;;;;;;;;;5082941;28;20428;-80
2021/06/10 11:47:59;;;;;;;5.43;4.60;;;;;;;;;;5084885;28;20411;-81
2021/06/10 11:50:29;;;;;;;5.10;4.70;;;;;;;;;;5088286;28;20461;-82
2021/06/10 11:52:57;;;;;;;4.97;4.57;;;;;;;;;;5070991;28;20419;-80
2021/06/10 11:55:27;;;;;;;4.80;4.40;;;;;;;;;;5080080;28;20396;-80
2021/06/10 11:57:59;;;;;;;5.38;4.88;;;;;;;;;;5082280;28;20416;-82
2021/06/10 12:00:32;;;;;;;5.57;4.80;;;;;;;;;;5087040;28;20415;-81
2021/06/10 12:03:00;;;;;;;5.18;4.57;;;;;;;;;;5086328;28;20390;-81
2021/06/10 12:05:28;;;;;;;5.00;4.60;;;;;;;;;;5078928;28;20404;-81
2021/06/10 12:08:08;;;;;;;4.45;4.05;;;;;;;;;;5081594;28;20920;-82
2021/06/10 12:10:37;;;;;;;4.45;4.05;;;;;;;;;;5079753;28;20426;-81
2021/06/10 12:13:03;;;;;;;4.40;4.00;;;;;;;;;;5082105;28;20400;-80
2021/06/10 12:15:38;;;;;;;4.27;3.87;;;;;;;;;;5081677;28;20944;-81
2021/06/10 12:18:06;;;;;;;4.75;4.22;;;;;;;;;;5085388;28;20741;-80
2021/06/10 12:20:35;;;;;;;4.30;4.00;;;;;;;;;;5083062;28;20501;-82
2021/06/10 12:23:03;;;;;;;3.75;3.45;;;;;;;;;;5080155;28;21137;-81
2021/06/10 12:25:33;;;;;;;4.07;3.78;;;;;;;;;;5085466;28;20407;-82
2021/06/10 12:28:02;;;;;;;3.63;3.33;;;;;;;;;;5082640;28;20411;-82
2021/06/10 12:30:32;;;;;;;4.20;3.80;;;;;;;;;;5087789;28;21243;-82
2021/06/10 12:33:12;;;;;;;4.50;3.60;;;;;;;;;;5084392;28;20435;-82
2021/06/10 12:35:40;;;;;;;4.03;3.73;;;;;;;;;;5082847;28;20404;-82
2021/06/10 12:38:06;;;;;;;4.20;3.80;;;;;;;;;;5084541;28;20547;-82
2021/06/10 12:40:38;;;;;;;4.72;4.30;;;;;;;;;;5082458;28;20659;-82
2021/06/10 12:43:11;;;;;;;4.10;3.80;;;;;;;;;;5085119;28;20405;-81
2021/06/10 12:45:38;;;;;;;4.50;4.10;;;;;;;;;;5078915;28;20449;-82
2021/06/10 12:48:22;;;;;;;4.03;3.72;;;;;;;;;;5083207;28;20395;-82
2021/06/10 12:50:49;;;;;;;3.85;3.55;;;;;;;;;;5081448;28;20466;-82
2021/06/10 12:53:17;;;;;;;4.35;4.05;;;;;;;;;;5086329;28;20396;-82
2021/06/10 12:55:44;;;;;;;4.30;3.92;;;;;;;;;;5088434;28;20420;-82
2021/06/10 12:58:16;;;;;;;4.35;4.05;;;;;;;;;;5084283;28;20420;-82
2021/06/10 13:00:42;;;;;;;4.50;4.10;;;;;;;;;;5085978;28;20961;-82
2021/06/10 13:03:10;;;;;;;4.50;4.07;;;;;;;;;;5088118;28;20431;-82
2021/06/10 13:05:38;;;;;;;4.40;4.00;;;;;;;;;;5083868;28;20395;-82
2021/06/10 13:08:05;;;;;;;4.40;4.10;;;;;;;;;;5086800;28;20390;-82
2021/06/10 13:10:37;;;;;;;4.63;4.22;;;;;;;;;;5086381;28;20418;-81
2021/06/10 13:13:04;;;;;;;4.47;4.07;;;;;;;;;;5088129;28;20400;-82
2021/06/10 13:15:35;;;;;;;4.30;3.90;;;;;;;;;;5082640;28;20756;-82
2021/06/10 13:18:03;;;;;;;4.03;3.73;;;;;;;;;;5091380;28;20394;-82
2021/06/10 13:20:48;;;;;;;5.65;4.00;;;;;;;;;;5088424;28;20793;-82
2021/06/10 13:23:17;;;;;;;4.40;4.00;;;;;;;;;;5082197;28;20411;-82
2021/06/10 13:25:47;;;;;;;4.72;4.35;;;;;;;;;;5071812;28;20410;-82
2021/06/10 13:28:15;;;;;;;4.65;4.28;;;;;;;;;;5080124;28;20396;-82
2021/06/10 13:30:45;;;;;;;4.72;4.32;;;;;;;;;;5087371;28;20965;-82
2021/06/10 13:33:17;;;;;;;4.43;4.13;;;;;;;;;;5080633;28;20404;-82
2021/06/10 13:35:45;;;;;;;4.85;4.38;;;;;;;;;;5081498;28;20490;-82
2021/06/10 13:38:12;;;;;;;4.35;3.95;;;;;;;;;;5090691;28;20400;-81
2021/06/10 13:40:38;;;;;;;4.35;3.95;;;;;;;;;;5085973;28;20742;-81
2021/06/10 13:43:05;;;;;;;4.00;3.70;;;;;;;;;;5085748;28;20401;-82
2021/06/10 13:45:31;;;;;;;4.93;4.53;;;;;;;;;;5085740;28;20732;-82
2021/06/10 13:48:00;;;;;;;4.47;4.07;;;;;;;;;;5084921;28;20396;-82
2021/06/10 13:50:28;;;;;;;4.77;4.37;;;;;;;;;;5085540;28;20876;-82
2021/06/10 13:52:55;;;;;;;5.43;4.40;;;;;;;;;;5086545;28;20400;-82
2021/06/10 13:55:21;;;;;;;4.57;4.05;;;;;;;;;;5083468;28;20409;-80
2021/06/10 13:57:48;;;;;;;4.30;4.00;;;;;;;;;;5078939;28;20622;-82
2021/06/10 14:00:18;;;;;;;4.40;4.05;;;;;;;;;;5070670;28;20947;-82
2021/06/10 14:02:44;;;;;;;4.60;4.25;;;;;;;;;;5072097;28;20404;-82
2021/06/10 14:05:13;;;;;;;4.60;4.20;;;;;;;;;;5067314;28;20398;-82
2021/06/10 14:07:39;;;;;;;4.30;3.90;;;;;;;;;;5065933;28;20421;-82
2021/06/10 14:10:07;;;;;;;4.97;4.07;;;;;;;;;;5062070;28;20530;-83
2021/06/10 14:12:33;;;;;;;4.68;4.30;;;;;;;;;;5068643;28;20400;-82
2021/06/10 14:15:01;;;;;;;4.70;4.30;;;;;;;;;;5057449;28;20554;-82
2021/06/10 14:17:27;;;;;;;4.43;4.13;;;;;;;;;;5071004;28;20452;-81
2021/06/10 14:19:53;;;;;;;4.60;4.20;;;;;;;;;;5065560;28;20766;-81
2021/06/10 14:22:21;;;;;;;5.28;4.57;;;;;;;;;;5066531;28;20408;-80
2021/06/10 14:24:47;;;;;;;5.25;4.40;;;;;;;;;;5063717;28;20396;-81
2021/06/10 14:27:17;;;;;;;4.60;4.30;;;;;;;;;;5064627;28;20449;-79
2021/06/10 14:29:46;;;;;;;4.80;4.40;;;;;;;;;;5066471;28;20424;-81
2021/06/10 14:32:19;;;;;;;4.45;4.13;;;;;;;;;;5070640;28;20841;-82
2021/06/10 14:34:46;;;;;;;5.55;4.22;;;;;;;;;;5067359;28;20404;-83
2021/06/10 14:37:13;;;;;;;4.72;4.28;;;;;;;;;;5073786;28;20741;-80
2021/06/10 14:39:41;;;;;;;4.80;4.30;;;;;;;;;;5073331;28;20408;-82
2021/06/10 14:42:08;;;;;;;5.38;4.38;;;;;;;;;;5075819;28;20392;-81